KNMI Weerbulletins

Hier vind u de KMNI verwachtingen en de waarnemingen

Bron: KNMI website
Laatste update op 25-06-2019 om 10:42
ZCZC
FBNL50 EHDB 250458
WEERBULLETIN VOOR DE LUCHTVAART
.
GELDIG 250600/251200 UTC
.
SITUATIE: EEN THERMISCH LAAG BOVEN DE WESTKUST VAN BELGIE TREKT
NOORDOOSTWAARTS EN LIGT AAN HET EINDE VAN DE PERIODE BOVEN HET
ZUIDWESTEN. AAN DE NOORDOOSTFLANK VAN DIT LAAG WORDT MET EEN
ZUIDOOSTELIJKE STROMING CONTINENTAAL TROPISCHE LUCHT AANGEVOERD. AAN
DE ZUIDWESTFLANK VOERT EEN WEST TOT NOORDWESTELIJKE STROMING MINDER
WARME LUCHT AAN. DE OPBOUW WORDT IN DE EERSTE HELFT VAN DE PERIODE
GELEIDELIJK ONSTABIEL TOT CA. 6000 VT.
.
SIGNIFICANT WEER: GEEN.
.
WIND: OOST- TOT ZUIDOOSTELIJK 5-10 KN, IN DE KUSTGEBIEDEN 8-13 KN. IN
HET WESTELIJK KUSTGEBIED AANVANKELIJK NOORDOOSTELIJK 10-15 KN. IN DE
EERSTE HELFT VAN DE PERIODE NEEMT DE WIND LANDINWAARTS ENKELE KN TOE.
AAN HET EIND VAN DE PERIODE IN HET ZUIDWESTELIJK KUSTGEBIED WEST TOT
NOORDWEST 8-13 KN.
.
BEWOLKING: VOORAL IN HET WESTEN MOGELIJK LOKAAL BKN AC ROND 7000-8000
VT, TOPPEN BOVEN FL100.
.
ZICHT: MEER DAN 10 KM.
.
NULGRADEN NIVEAU: BOVEN FL100.
.
HOOGTEWINDEN EN TEMPERATUREN:
       06 UTC:       12 UTC:
0500VT 140/15-20 +24 140-220/15-20 +31
1500VT 150/15-20 +26 150-210/15-20 +28
3000VT 150/15-20 +22 150-180/15-20 +23
FL 050 140/15-20 +15     200/20-25 +19
FL 100 190/25    +07     200/25-30 +08
MEEST GERUIMDE WIND IN HET ZUIDWESTEN.
.
.
THERMIEK: VANAF 07 UTC ZWAK, VANAF 09 UTC MATIG EN DROOG.
.
MAX. TEMPERATUUR: VAN 30 GRADEN CELSIUS AAN DE KUST TOT 36 GRADEN IN
HET (ZUID)OOSTEN.
.
VOORUITZICHTEN VOOR DE PERIODE VAN 251200/251800: HET LAAG TREKT
VERDER NOORDOOSTWAARTS EN LIGT AAN HET EINDE VAN DE PERIODE TEN
NOORDWESTEN VAN DE WADDEN.
.
DAGLICHTPERIODE: 03.06 TOT 20.19 UTC.=
NNNN
Bron: KNMI website
Laatste update op 25-06-2019 om 10:42
ZCZC
FC250500 EHGR     GILZE-RIJEN/GILZE-RIJEN   NLD   14 m.
TAF EHGR 250418Z 2505/2517 12005KT CAVOK
    PROB40 TEMPO 2512/2517 23007G17KT
    BECMG 2515/2517 28008KT=
ZCZC
FC250500 EHKD     DE KOOY/DE KOOY   NLD   1 m.
TAF EHKD 250408Z 2505/2517 VRB03KT CAVOK
    BECMG 2505/2507 12008KT
    TEMPO 2509/2515 17008G18KT
    BECMG 2514/2517 28008KT=
ZCZC
FC250500 EHLW     LEEUWARDEN/LEEUWARDEN   NLD   1 m.
TAF EHLW 250405Z 2505/2517 11004KT CAVOK
    BECMG 2508/2511 15008KT
    TEMPO 2509/2515 17010G20KT
    BECMG 2514/2517 22006KT=
ZCZC
FC250500 EHVK     VOLKEL/VOLKEL   NLD   21 m.
TAF EHVK 250411Z 2505/2517 09005KT CAVOK
    BECMG 2506/2509 15007KT
    PROB40 TEMPO 2509/2517 20007G17KT=
ZCZC
FC250500 EHWO     WOENSDRECHT/WOENSDRECHT   NLD   19 m.
TAF EHWO 250420Z 2505/2517 VRB03KT 8000 BKN065
    BECMG 2505/2508 12007KT
    PROB40 TEMPO 2510/2517 20007G17KT
    BECMG 2515/2517 30008KT=
ZCZC
FT250500 EHAM     AMSTERDAM/SCHIPHOL   NLD   -3 m.
TAF EHAM 250515Z 2506/2612 12007KT CAVOK
    BECMG 2508/2511 17012KT
    BECMG 2513/2516 29010KT
    BECMG 2521/2524 33007KT
    BECMG 2600/2603 4500 BR SCT004 BKN007
    BECMG 2607/2610 36012KT CAVOK=
ZCZC
FT250500 EHBK     MAASTRICHT/MAASTRICHT-AACHEN   NLD   114 m.
TAF EHBK 250439Z 2506/2612 11005KT CAVOK
    BECMG 2509/2512 20010KT
    BECMG 2516/2519 27007KT=
ZCZC
FT250500 EHGG     GRONINGEN/EELDE   NLD   5 m.
TAF EHGG 250438Z 2506/2612 12008KT CAVOK
    BECMG 2509/2512 16013KT
    BECMG 2513/2516 21010KT
    BECMG 2516/2519 30008KT
    PROB40 2605/2608 4000 BR BKN008
    BECMG 2606/2609 34012KT=
ZCZC
FT250500 EHRD     ROTTERDAM/THE HAGUE AIRPORT   NLD   -5 m.
TAF EHRD 250515Z 2506/2612 12007KT CAVOK
    BECMG 2508/2511 17012KT
    BECMG 2513/2516 29010KT
    BECMG 2521/2524 33007KT
    BECMG 2600/2603 4500 BR SCT004 BKN007
    BECMG 2607/2610 36012KT CAVOK=
ZCZC
FT250500 EHEH     EINDHOVEN/EINDHOVEN   NLD   22 m.
TAF EHEH 250507Z 2506/2612 12004KT CAVOK
    PROB40 TEMPO 2509/2517 20007G17KT
    BECMG 2515/2518 30007KT
    PROB30 TEMPO 2604/2608 SCT004 BKN006=
Bron: KNMI website
Laatste update op 25-06-2019 om 10:42
ZCZC
SA250755 EHFS     VLISSINGEN AWS   NLD   8 m.
METAR EHFS 250755Z AUTO 11010KT 9999 NSC 23/19 Q1014 W///H///=
ZCZC
SA250825 EHKD     DE KOOY/DE KOOY   NLD   1 m.
METAR EHKD 250825Z AUTO /////KT 9999 NCD 24/19 Q////
BLU 07006KT CAVOK=
ZCZC
SA250825 EHFD     F3-FB-1   NLD   50 m.
METAR EHFD 250825Z AUTO VRB02KT 9999 NSC 18/15 Q1018 W///H///=
ZCZC
SA250825 EHAM     AMSTERDAM/SCHIPHOL   NLD   -3 m.
METAR EHAM 250825Z 12009KT 090V150 CAVOK 27/19 Q1015 NOSIG=
ZCZC
SA250825 EHVL     VLIELAND   NLD   10 m.
METAR EHVL 250825Z NIL=
ZCZC
SA250825 EHJR     K13-A   NLD   37 m.
METAR EHJR 250825Z AUTO 01018KT //// // ///////// 18/16 Q//// RE//
W15/H5=
ZCZC
SA250825 EHLW     LEEUWARDEN/LEEUWARDEN   NLD   1 m.
METAR EHLW 250825Z AUTO 14006KT 060V170 9999 OVC190 27/17 Q1017
BLU 14004KT CAVOK=
ZCZC
SA250825 EHDL     ARNHEM/DEELEN   NLD   48 m.
METAR EHDL 250825Z AUTO 13009KT 040V210 9999 OVC150 27/17 Q1016 BLU=
ZCZC
SA250825 EHGG     GRONINGEN/EELDE   NLD   5 m.
METAR EHGG 250825Z AUTO 13005KT 080V180 9999 NSC 27/17 Q1017 NOSIG=
ZCZC
SA250825 EHSC     LICHTEILAND GOEREE   NLD   22 m.
METAR EHSC 250825Z AUTO 11015G33KT 9999 ///////// 22/19 Q1015 W17/H4=
ZCZC
SA250825 EHSA     EURO PLATFORM   NLD   19 m.
METAR EHSA 250825Z AUTO 07012KT 7000 ///////// 19/17 Q1014 W14/H5=
ZCZC
SA250825 EHWO     WOENSDRECHT/WOENSDRECHT   NLD   19 m.
METAR EHWO 250825Z AUTO VRB03KT 9999 OVC360 28/20 Q1014
BLU 15005KT CAVOK BECMG 18005KT=
ZCZC
SA250825 EHRD     ROTTERDAM/THE HAGUE AIRPORT   NLD   -5 m.
METAR EHRD 250825Z AUTO 10005KT 070V140 9999 NSC 27/19 Q1015 NOSIG=
ZCZC
SA250825 EHGR     GILZE-RIJEN/GILZE-RIJEN   NLD   14 m.
METAR EHGR 250825Z AUTO 12006KT 080V160 9999 OVC190 28/19 Q1015
BLU 12006KT CAVOK=
ZCZC
SA250825 EHEH     EINDHOVEN/EINDHOVEN   NLD   22 m.
METAR EHEH 250825Z AUTO 12006KT 090V190 9999 NCD 28/17 Q1015
BLU 13006KT CAVOK=
ZCZC
SA250825 EHVK     VOLKEL/VOLKEL   NLD   21 m.
METAR EHVK 250825Z AUTO 13008KT 090V160 9999 OVC160 27/18 Q1016
BLU 13007KT CAVOK BECMG 16007KT=
ZCZC
SA250825 EHBK     MAASTRICHT/MAASTRICHT-AACHEN   NLD   114 m.
METAR EHBK 250825Z AUTO 17008KT 130V200 9999 NCD 30/19 Q1016 NOSIG=
ZCZC
SA250825 EHFZ     F16-A   NLD   43 m.
METAR EHFZ 250825Z AUTO 04020KT 9999 NSC 19/16 Q1017 W///H///=
ZCZC
SA250825 EHKV     K14-FA-1C   NLD   41 m.
METAR EHKV 250825Z AUTO 04014KT 8000 NSC 18/16 Q//// W///H///=
ZCZC
SA250825 EHMG     L9-FF-1   NLD   44 m.
METAR EHMG 250825Z AUTO 11007KT 9999 ////// 20/16 Q1017 W///H///=
ZCZC
SA250825 EHMA     AWG-1   NLD   40 m.
METAR EHMA 250825Z AUTO 10008KT 9999 -RA NSC 24/16 Q1017 RERA REDZ
W///H///=
ZCZC
SA250825 EHDV     D15-FA-1   NLD   42 m.
METAR EHDV 250825Z AUTO 02019KT 4900 BR NSC 16/15 Q1018 W///H///=
ZCZC
SA250825 EHAK     A12-CPP   NLD   48 m.
METAR EHAK 250825Z AUTO 03018KT 9999 OVC000/// 16/14 Q1019 W///H///=
ZCZC
SA250825 EHQE     HOORN-A   NLD   50 m.
METAR EHQE 250825Z AUTO 05016KT 9999 NSC 20/18 Q1016 W///H///=
ZCZC
SA250825 EHJA     J6-A   NLD   45 m.
METAR EHJA 250825Z AUTO 32014KT 280V340 3500 -SHRA FEW005/// 16/15
Q1018 RERA W///H///=
ZCZC
SA250825 EHPG     P11-B   NLD   41 m.
METAR EHPG 250825Z AUTO 05010KT 6000 NSC 17/16 Q1015 W///H///=
ZCZC
SA250825 EHHW     BUITENGAATS/BG-OHVS2      42 m.
METAR EHHW 250825Z AUTO 15016KT 9999 NSC 20/15 Q1018 W///H///=